Time;durP1;ratioP1;P1;durP2;ratioP2;P2;SDS_P1;SDS_P2;PMS_P1;PMS_P2;Temp;Humidity;BMP_temperature;BMP_pressure;BME280_temperature;BME280_humidity;BME280_pressure;Samples;Min_cycle;Max_cycle;Signal;HPM_P1;HPM_P2
2023/05/06 00:02:09;;;;;;;0.50;0.50;;;;;;;3.46;39.79;101785.28;5006876;28;20026;-75
2023/05/06 00:04:37;;;;;;;0.50;0.50;;;;;;;3.42;40.12;101780.81;5006935;28;20049;-73
2023/05/06 00:07:02;;;;;;;0.50;0.50;;;;;;;3.42;40.39;101783.38;4989088;28;20029;-74
2023/05/06 00:09:28;;;;;;;0.50;0.50;;;;;;;3.23;40.49;101768.84;5006732;28;20113;-74
2023/05/06 00:11:53;;;;;;;0.50;0.50;;;;;;;3.44;40.79;101775.72;5006558;28;20028;-75
2023/05/06 00:14:19;;;;;;;0.50;0.50;;;;;;;3.21;40.97;101784.19;5006429;28;20035;-76
2023/05/06 00:16:44;;;;;;;0.50;0.50;;;;;;;3.21;41.44;101778.19;5006521;28;20036;-74
2023/05/06 00:19:10;;;;;;;0.50;0.50;;;;;;;3.26;41.59;101768.13;5006755;28;20050;-75
2023/05/06 00:21:35;;;;;;;1.45;1.38;;;;;;;3.16;41.98;101771.97;5006636;28;20030;-74
2023/05/06 00:24:01;;;;;;;0.50;0.50;;;;;;;3.07;42.03;101772.41;5006392;28;20041;-74
2023/05/06 00:26:26;;;;;;;0.50;0.50;;;;;;;3.08;42.59;101781.91;4989022;28;20132;-73
2023/05/06 00:28:51;;;;;;;0.50;0.50;;;;;;;3.47;42.58;101766.47;5006286;28;20026;-76
2023/05/06 00:31:17;;;;;;;0.50;0.50;;;;;;;3.16;42.86;101771.97;5004987;28;20509;-75
2023/05/06 00:33:43;;;;;;;0.50;0.50;;;;;;;3.19;43.25;101752.47;5006346;28;20022;-75
2023/05/06 00:36:08;;;;;;;0.50;0.50;;;;;;;2.97;43.12;101774.56;5006328;28;20023;-75
2023/05/06 00:38:34;;;;;;;0.50;0.50;;;;;;;2.96;43.69;101772.84;5006285;28;20026;-75
2023/05/06 00:41:00;;;;;;;0.50;0.50;;;;;;;2.90;43.74;101779.38;5006301;28;20026;-74
2023/05/06 00:43:25;;;;;;;0.50;0.50;;;;;;;2.94;43.98;101771.88;5004791;28;20060;-76
2023/05/06 00:45:51;;;;;;;0.50;0.50;;;;;;;2.82;44.06;101764.53;5005884;28;20030;-75
2023/05/06 00:48:17;;;;;;;0.50;0.50;;;;;;;2.92;44.54;101783.78;5004655;28;20030;-75
2023/05/06 00:50:43;;;;;;;0.43;0.43;;;;;;;2.71;44.62;101752.88;5004453;28;20026;-75
2023/05/06 00:53:09;;;;;;;0.50;0.50;;;;;;;2.70;45.22;101758.84;5006246;28;20109;-75
2023/05/06 00:55:35;;;;;;;0.50;0.50;;;;;;;2.60;45.32;101766.06;5005810;28;20094;-75
2023/05/06 00:58:01;;;;;;;0.50;0.50;;;;;;;2.56;45.22;101777.00;5005823;28;20031;-74
2023/05/06 01:00:27;;;;;;;0.50;0.50;;;;;;;2.45;45.47;101763.69;5005706;28;20022;-74
2023/05/06 01:02:52;;;;;;;0.50;0.50;;;;;;;2.53;46.00;101750.34;5005443;28;20041;-74
2023/05/06 01:05:21;;;;;;;0.50;0.50;;;;;;;2.52;45.99;101759.72;5005790;28;20359;-74
2023/05/06 01:08:04;;;;;;;0.50;0.50;;;;;;;2.56;46.35;101766.75;5005845;28;20057;-75
2023/05/06 01:10:46;;;;;;;0.52;0.52;;;;;;;2.65;47.04;101755.16;5004950;28;20030;-74
2023/05/06 01:13:29;;;;;;;0.60;0.60;;;;;;;2.59;46.91;101766.00;5005631;28;20117;-74
2023/05/06 01:15:56;;;;;;;0.50;0.50;;;;;;;2.41;47.05;101766.91;5005387;28;20026;-74
2023/05/06 01:18:25;;;;;;;0.43;0.43;;;;;;;2.36;47.27;101760.69;5005335;28;20033;-75
2023/05/06 01:20:52;;;;;;;0.50;0.50;;;;;;;2.39;47.54;101771.09;5005290;28;20033;-74
2023/05/06 01:23:18;;;;;;;0.50;0.50;;;;;;;2.30;47.78;101763.81;5004090;28;20019;-75
2023/05/06 01:25:44;;;;;;;0.80;0.80;;;;;;;2.17;47.88;101754.66;5003816;28;20033;-75
2023/05/06 01:28:10;;;;;;;0.57;0.57;;;;;;;2.06;47.82;101755.88;5005367;28;20054;-74
2023/05/06 01:30:41;;;;;;;0.50;0.50;;;;;;;2.08;48.13;101778.19;5004993;28;20040;-74
2023/05/06 01:33:16;;;;;;;0.70;0.70;;;;;;;2.02;48.48;101766.75;5005431;28;20026;-74
2023/05/06 01:35:47;;;;;;;0.52;0.52;;;;;;;1.97;48.27;101764.84;5005312;28;20082;-75
2023/05/06 01:38:33;;;;;;;0.67;0.67;;;;;;;1.96;48.57;101775.03;5005390;28;20026;-74
2023/05/06 01:41:00;;;;;;;2.25;2.15;;;;;;;1.92;48.70;101757.72;5005185;28;20342;-73
2023/05/06 01:43:32;;;;;;;0.50;0.50;;;;;;;1.91;49.05;101766.22;5005134;28;20027;-75
2023/05/06 01:45:59;;;;;;;0.50;0.50;;;;;;;1.81;49.21;101752.97;4986970;28;20018;-75
2023/05/06 01:48:27;;;;;;;0.40;0.40;;;;;;;1.91;49.63;101772.22;4987566;28;20029;-75
2023/05/06 01:50:52;;;;;;;0.50;0.50;;;;;;;1.84;49.81;101763.34;5004683;28;20030;-75
2023/05/06 01:53:18;;;;;;;0.50;0.50;;;;;;;1.85;49.73;101761.69;5004964;28;20505;-74
2023/05/06 01:55:43;;;;;;;0.50;0.50;;;;;;;1.84;50.13;101762.47;5004760;28;20049;-74
2023/05/06 01:58:08;;;;;;;0.50;0.50;;;;;;;1.89;50.31;101755.91;5004797;28;20026;-73
2023/05/06 02:00:37;;;;;;;0.50;0.50;;;;;;;1.75;50.38;101759.47;5004747;28;20018;-75
2023/05/06 02:03:03;;;;;;;0.50;0.50;;;;;;;1.76;50.52;101763.78;5004853;28;20080;-75
2023/05/06 02:05:28;;;;;;;0.50;0.50;;;;;;;1.73;50.45;101765.38;5004483;28;20022;-74
2023/05/06 02:07:53;;;;;;;0.50;0.50;;;;;;;1.76;50.70;101758.69;5004788;28;20042;-74
2023/05/06 02:10:19;;;;;;;0.50;0.50;;;;;;;1.77;50.57;101758.75;5004704;28;20039;-75
2023/05/06 02:12:44;;;;;;;0.80;0.80;;;;;;;1.68;50.78;101763.38;5004565;28;20390;-73
2023/05/06 02:15:10;;;;;;;0.60;0.60;;;;;;;1.76;50.93;101759.53;5004588;28;20033;-73
2023/05/06 02:17:37;;;;;;;0.50;0.50;;;;;;;1.70;50.90;101761.78;4987025;28;20061;-74
2023/05/06 02:20:02;;;;;;;0.50;0.50;;;;;;;1.56;51.25;101762.00;5004556;28;20092;-74
2023/05/06 02:22:28;;;;;;;0.50;0.50;;;;;;;1.75;51.27;101750.09;5003433;28;20443;-73
2023/05/06 02:24:53;;;;;;;0.50;0.50;;;;;;;1.65;51.10;101756.44;5004306;28;20022;-73
2023/05/06 02:27:19;;;;;;;0.50;0.50;;;;;;;1.54;51.65;101760.13;4994156;28;20064;-73
2023/05/06 02:29:45;;;;;;;0.50;0.50;;;;;;;1.42;51.90;101757.84;5004324;28;20058;-75
2023/05/06 02:32:10;;;;;;;0.50;0.50;;;;;;;1.28;52.12;101746.91;5004381;28;20026;-74
2023/05/06 02:34:36;;;;;;;0.50;0.50;;;;;;;1.57;52.36;101747.50;5004219;28;20037;-75
2023/05/06 02:37:01;;;;;;;0.50;0.50;;;;;;;1.43;52.29;101760.47;5004426;28;20145;-72
2023/05/06 02:39:26;;;;;;;0.50;0.50;;;;;;;1.29;52.41;101738.41;5003021;28;20406;-75
2023/05/06 02:41:52;;;;;;;0.50;0.50;;;;;;;1.31;52.57;101740.25;5004222;28;20026;-74
2023/05/06 02:44:17;;;;;;;0.50;0.50;;;;;;;1.26;52.66;101751.06;5004300;28;20054;-73
2023/05/06 02:46:42;;;;;;;0.75;0.75;;;;;;;1.48;52.63;101753.94;5004199;28;20091;-73
2023/05/06 02:49:08;;;;;;;0.50;0.50;;;;;;;1.27;52.70;101732.34;5004345;28;20130;-74
2023/05/06 02:51:33;;;;;;;0.60;0.60;;;;;;;1.25;52.86;101746.75;5003995;28;20110;-74
2023/05/06 02:53:59;;;;;;;0.45;0.45;;;;;;;1.17;52.86;101741.22;5004201;28;20030;-73
2023/05/06 02:56:24;;;;;;;0.50;0.50;;;;;;;1.23;52.86;101726.19;5002726;28;20440;-74
2023/05/06 02:58:50;;;;;;;0.50;0.50;;;;;;;1.41;52.63;101727.91;5004123;28;20026;-73
2023/05/06 03:01:15;;;;;;;0.57;0.57;;;;;;;1.22;52.92;101729.53;5004372;28;20056;-74
2023/05/06 03:03:40;;;;;;;0.50;0.50;;;;;;;1.27;53.06;101732.34;5004236;28;20105;-73
2023/05/06 03:06:06;;;;;;;0.52;0.52;;;;;;;1.19;53.06;101732.81;5002635;28;20106;-73
2023/05/06 03:08:31;;;;;;;0.50;0.50;;;;;;;1.26;52.81;101744.25;5002872;28;20041;-72
2023/05/06 03:10:57;;;;;;;0.50;0.50;;;;;;;1.57;52.54;101730.47;5004141;28;20494;-75
2023/05/06 03:13:22;;;;;;;0.52;0.52;;;;;;;1.59;52.38;101720.28;5002841;28;20027;-74
2023/05/06 03:15:55;;;;;;;0.55;0.55;;;;;;;1.31;52.51;101706.13;5003885;28;20053;-74
2023/05/06 03:18:21;;;;;;;0.52;0.52;;;;;;;1.22;52.72;101727.88;5004163;28;20061;-73
2023/05/06 03:20:49;;;;;;;0.57;0.57;;;;;;;1.23;52.97;101729.63;5004407;28;20022;-73
2023/05/06 03:23:15;;;;;;;0.50;0.50;;;;;;;1.47;52.42;101724.00;5004050;28;20018;-74
2023/05/06 03:25:40;;;;;;;0.50;0.50;;;;;;;1.40;52.38;101731.28;5003958;28;20379;-73
2023/05/06 03:28:06;;;;;;;0.60;0.60;;;;;;;1.57;51.76;101720.22;5003910;28;20054;-74
2023/05/06 03:30:31;;;;;;;0.50;0.50;;;;;;;1.56;51.80;101709.91;5003754;28;20022;-75
2023/05/06 03:33:00;;;;;;;0.50;0.50;;;;;;;1.57;52.14;101714.22;4987412;28;20029;-75
2023/05/06 03:35:25;;;;;;;0.60;0.60;;;;;;;2.10;50.92;101716.75;5007567;28;20026;-74
2023/05/06 03:37:51;;;;;;;0.50;0.50;;;;;;;2.10;50.69;101714.19;5007506;28;20026;-75
2023/05/06 03:40:16;;;;;;;0.55;0.55;;;;;;;2.40;49.50;101690.81;5007520;28;20416;-77
2023/05/06 03:42:42;;;;;;;0.50;0.50;;;;;;;2.40;49.33;101729.25;5007459;28;20077;-76
2023/05/06 03:45:08;;;;;;;0.50;0.50;;;;;;;2.85;48.20;101708.22;5007545;28;20022;-75
2023/05/06 03:47:33;;;;;;;0.93;0.93;;;;;;;2.71;48.26;101705.03;5007266;28;20394;-74
2023/05/06 03:49:58;;;;;;;0.50;0.50;;;;;;;3.17;46.96;101705.31;4989546;28;20529;-74
2023/05/06 03:52:24;;;;;;;0.50;0.50;;;;;;;3.43;45.92;101702.09;5007167;28;20052;-75
2023/05/06 03:54:50;;;;;;;0.50;0.50;;;;;;;2.90;47.27;101723.81;4989605;28;20030;-74
2023/05/06 03:57:15;;;;;;;0.50;0.50;;;;;;;2.97;47.79;101712.16;5007126;28;20487;-76
2023/05/06 03:59:41;;;;;;;0.50;0.50;;;;;;;3.19;47.12;101703.69;5006887;28;20120;-78
2023/05/06 04:02:06;;;;;;;0.50;0.50;;;;;;;3.16;47.02;101713.84;5007038;28;20025;-76
2023/05/06 04:04:33;;;;;;;0.50;0.50;;;;;;;3.31;47.17;101711.03;5006979;28;20061;-79
2023/05/06 04:06:58;;;;;;;0.50;0.50;;;;;;;3.85;44.58;101711.50;5007072;28;20114;-77
2023/05/06 04:09:24;;;;;;;0.40;0.40;;;;;;;4.08;44.37;101712.44;4989412;28;20030;-77
2023/05/06 04:11:49;;;;;;;0.50;0.50;;;;;;;3.90;44.77;101715.13;5007018;28;20402;-75
2023/05/06 04:14:15;;;;;;;0.50;0.50;;;;;;;3.69;45.53;101712.59;5006493;28;20026;-78
2023/05/06 04:16:40;;;;;;;0.50;0.50;;;;;;;3.96;44.88;101719.66;5006445;28;20085;-76
2023/05/06 04:19:05;;;;;;;5.45;4.72;;;;;;;4.41;43.62;101713.69;4989323;28;20074;-77
2023/05/06 04:21:31;;;;;;;0.50;0.50;;;;;;;4.45;43.09;101705.28;4989018;28;20110;-77
2023/05/06 04:23:57;;;;;;;1.85;1.75;;;;;;;4.13;44.00;101722.91;4989104;28;20042;-72
2023/05/06 04:26:23;;;;;;;0.50;0.50;;;;;;;4.51;43.45;101686.63;5006159;28;20046;-77
2023/05/06 04:28:48;;;;;;;0.50;0.50;;;;;;;4.46;43.04;101713.84;5006552;28;20061;-77
2023/05/06 04:31:14;;;;;;;0.50;0.50;;;;;;;4.00;44.63;101764.31;5006459;28;20105;-74
2023/05/06 04:33:40;;;;;;;0.50;0.50;;;;;;;4.65;43.45;101687.13;5006547;28;20383;-76
2023/05/06 04:36:05;;;;;;;0.50;0.50;;;;;;;4.20;44.42;101704.31;5006010;28;20018;-76
2023/05/06 04:38:31;;;;;;;0.50;0.50;;;;;;;4.30;44.42;101694.38;4988542;28;20022;-75
2023/05/06 04:40:58;;;;;;;0.50;0.50;;;;;;;4.30;44.83;101714.94;5006107;28;20023;-74
2023/05/06 04:43:26;;;;;;;0.50;0.50;;;;;;;4.65;43.80;101712.84;4988692;28;20053;-76
2023/05/06 04:45:53;;;;;;;0.50;0.50;;;;;;;4.93;43.48;101701.00;5005634;28;20022;-78
2023/05/06 04:48:21;;;;;;;0.50;0.50;;;;;;;4.82;44.02;101697.16;5005844;28;20018;-78
2023/05/06 04:50:47;;;;;;;0.50;0.50;;;;;;;4.83;43.78;101727.22;4988573;28;20053;-75
2023/05/06 04:53:14;;;;;;;0.47;0.47;;;;;;;5.03;43.21;101734.78;5006108;28;20037;-77
2023/05/06 04:55:39;;;;;;;0.43;0.43;;;;;;;4.92;44.02;101721.53;5005865;28;20084;-76
2023/05/06 04:58:05;;;;;;;0.50;0.50;;;;;;;5.07;43.49;101722.09;5005835;28;20031;-77
2023/05/06 05:00:30;;;;;;;0.50;0.50;;;;;;;5.38;42.65;101726.56;5005710;28;20113;-78
2023/05/06 05:02:56;;;;;;;0.73;0.73;;;;;;;5.58;42.13;101714.34;5005841;28;20034;-80
2023/05/06 05:05:23;;;;;;;0.50;0.50;;;;;;;5.45;42.45;101724.25;5005890;28;20038;-78
2023/05/06 05:07:48;;;;;;;0.50;0.50;;;;;;;5.14;43.13;101712.00;4988233;28;20430;-78
2023/05/06 05:10:14;;;;;;;0.50;0.50;;;;;;;4.89;43.93;101731.72;4987997;28;20014;-78
2023/05/06 05:12:39;;;;;;;0.50;0.50;;;;;;;5.14;44.06;101717.16;5005550;28;20061;-78
2023/05/06 05:15:05;;;;;;;0.50;0.50;;;;;;;5.39;43.50;101736.03;5005382;28;20032;-75
2023/05/06 05:17:31;;;;;;;0.50;0.50;;;;;;;5.52;43.07;101733.06;5005550;28;20037;-78
2023/05/06 05:19:56;;;;;;;0.50;0.50;;;;;;;5.48;43.48;101722.59;5005367;28;20077;-78
2023/05/06 05:22:21;;;;;;;0.50;0.50;;;;;;;5.58;43.61;101722.97;5005355;28;20030;-77
2023/05/06 05:24:47;;;;;;;0.50;0.50;;;;;;;6.00;42.38;101723.44;5005378;28;20026;-76
2023/05/06 05:27:12;;;;;;;0.50;0.50;;;;;;;5.98;42.27;101722.50;5005395;28;20069;-76
2023/05/06 05:29:38;;;;;;;0.40;0.40;;;;;;;6.47;40.79;101704.22;5005436;28;20057;-76
2023/05/06 05:32:03;;;;;;;0.50;0.50;;;;;;;5.93;42.06;101700.84;5005378;28;20034;-77
2023/05/06 05:34:29;;;;;;;0.70;0.70;;;;;;;5.96;42.13;101716.41;5005211;28;20041;-77
2023/05/06 05:36:56;;;;;;;0.50;0.50;;;;;;;5.77;43.28;101720.09;4987539;28;20023;-77
2023/05/06 05:39:22;;;;;;;0.50;0.50;;;;;;;6.06;41.98;101722.78;4987476;28;20032;-76
2023/05/06 05:41:47;;;;;;;0.40;0.40;;;;;;;5.94;42.53;101718.09;5005250;28;20057;-78
2023/05/06 05:44:13;;;;;;;0.40;0.40;;;;;;;6.26;42.90;101722.53;4987070;28;20030;-75
2023/05/06 05:46:38;;;;;;;0.47;0.47;;;;;;;6.76;41.37;101721.41;4987438;28;20025;-77
2023/05/06 05:49:04;;;;;;;0.40;0.40;;;;;;;6.65;41.86;101703.03;5005120;28;20026;-77
2023/05/06 05:51:30;;;;;;;0.40;0.40;;;;;;;6.55;41.38;101733.72;5004941;28;20120;-77
2023/05/06 05:53:55;;;;;;;0.50;0.50;;;;;;;6.56;41.63;101726.88;5005194;28;20025;-78
2023/05/06 05:56:20;;;;;;;6.13;2.25;;;;;;;6.54;42.02;101736.25;5004624;28;20022;-79
2023/05/06 05:58:46;;;;;;;0.40;0.40;;;;;;;7.22;40.62;101716.63;5005061;28;20418;-77
2023/05/06 06:01:11;;;;;;;0.50;0.50;;;;;;;7.09;40.89;101730.06;5004847;28;20023;-78
2023/05/06 06:03:37;;;;;;;0.40;0.40;;;;;;;6.84;41.35;101737.97;5005067;28;20030;-76
2023/05/06 06:06:03;;;;;;;0.40;0.40;;;;;;;7.47;39.98;101726.75;4987314;28;20029;-76
2023/05/06 06:08:28;;;;;;;0.50;0.50;;;;;;;7.07;40.80;101725.75;5004829;28;20026;-76
2023/05/06 06:10:55;;;;;;;0.50;0.50;;;;;;;7.46;40.11;101709.50;5005034;28;20092;-76
2023/05/06 06:13:20;;;;;;;0.40;0.40;;;;;;;7.11;40.94;101703.44;4987166;28;20022;-75
2023/05/06 06:15:45;;;;;;;0.50;0.50;;;;;;;7.06;41.13;101734.31;4987161;28;20037;-78
2023/05/06 06:18:11;;;;;;;0.40;0.40;;;;;;;7.30;40.94;101715.13;5004709;28;20022;-76
2023/05/06 06:20:37;;;;;;;0.40;0.40;;;;;;;7.49;40.14;101714.75;5004678;28;20019;-80
2023/05/06 06:23:02;;;;;;;0.40;0.40;;;;;;;7.84;39.34;101706.13;4987289;28;20097;-77
2023/05/06 06:25:27;;;;;;;0.40;0.40;;;;;;;7.54;40.00;101708.84;5004510;28;20029;-76
2023/05/06 06:27:54;;;;;;;0.50;0.50;;;;;;;8.09;38.72;101714.44;4998841;28;20050;-78
2023/05/06 06:30:19;;;;;;;0.40;0.40;;;;;;;7.49;39.41;101715.59;5004697;28;20069;-78
2023/05/06 06:32:52;;;;;;;0.40;0.40;;;;;;;7.46;40.75;101725.84;5004586;28;20027;-78
2023/05/06 06:35:19;;;;;;;0.50;0.50;;;;;;;7.80;39.88;101710.31;5004653;28;20037;-78
2023/05/06 06:37:45;;;;;;;1.02;0.98;;;;;;;7.88;39.17;101706.22;5003103;28;20086;-78
2023/05/06 06:40:11;;;;;;;0.40;0.40;;;;;;;7.73;40.01;101708.44;5004549;28;20348;-76
2023/05/06 06:42:36;;;;;;;0.40;0.40;;;;;;;7.85;39.95;101705.25;5004527;28;20323;-77
2023/05/06 06:45:02;;;;;;;0.40;0.40;;;;;;;8.07;40.34;101704.06;5003046;28;20046;-79
2023/05/06 06:47:28;;;;;;;0.40;0.40;;;;;;;8.32;38.63;101707.22;5004410;28;20089;-71
2023/05/06 06:49:53;;;;;;;0.40;0.40;;;;;;;8.34;38.74;101708.09;5004477;28;20427;-73
2023/05/06 06:52:18;;;;;;;0.50;0.50;;;;;;;8.26;38.99;101717.44;5003134;28;20045;-73
2023/05/06 06:54:44;;;;;;;0.40;0.40;;;;;;;8.33;38.67;101710.66;5004321;28;20121;-75
2023/05/06 06:57:10;;;;;;;0.40;0.40;;;;;;;8.89;37.53;101689.41;5004489;28;20042;-71
2023/05/06 06:59:35;;;;;;;0.50;0.50;;;;;;;8.39;38.51;101690.97;5002714;28;20026;-73
2023/05/06 07:02:01;;;;;;;0.40;0.40;;;;;;;8.58;38.56;101695.72;5004181;28;20023;-78
2023/05/06 07:04:26;;;;;;;0.40;0.40;;;;;;;9.00;37.68;101678.38;5004431;28;20037;-75
2023/05/06 07:06:52;;;;;;;0.50;0.50;;;;;;;8.77;37.56;101690.03;5004166;28;20026;-77
2023/05/06 07:09:17;;;;;;;0.40;0.40;;;;;;;8.75;38.62;101694.34;5005856;28;20023;-77
2023/05/06 07:11:42;;;;;;;0.40;0.40;;;;;;;9.28;37.71;101699.63;5006821;28;20057;-80
2023/05/06 07:14:08;;;;;;;0.40;0.40;;;;;;;9.90;36.11;101698.03;5006451;28;20027;-76
2023/05/06 07:16:33;;;;;;;0.40;0.40;;;;;;;9.59;35.87;101694.94;5007979;28;20018;-77
2023/05/06 07:19:00;;;;;;;0.40;0.40;;;;;;;9.50;36.40;101698.28;5007806;28;20018;-75
2023/05/06 07:21:26;;;;;;;0.40;0.40;;;;;;;9.45;36.40;101691.25;5007782;28;20027;-77
2023/05/06 07:23:52;;;;;;;0.50;0.50;;;;;;;9.47;37.21;101705.13;5006506;28;20026;-77
2023/05/06 07:26:17;;;;;;;0.40;0.40;;;;;;;9.75;36.50;101697.78;5005907;28;20025;-76
2023/05/06 07:28:42;;;;;;;0.40;0.40;;;;;;;9.89;35.71;101691.09;5007617;28;20108;-77
2023/05/06 07:31:08;;;;;;;0.40;0.40;;;;;;;9.77;35.99;101685.72;5007436;28;20021;-75
2023/05/06 07:33:33;;;;;;;0.40;0.40;;;;;;;9.98;37.09;101695.56;5007508;28;20026;-75
2023/05/06 07:35:59;;;;;;;0.40;0.40;;;;;;;10.44;35.35;101715.22;5007364;28;20080;-75
2023/05/06 07:38:24;;;;;;;0.35;0.35;;;;;;;10.56;35.35;101695.50;4989729;28;20335;-63
2023/05/06 07:40:50;;;;;;;0.40;0.40;;;;;;;10.76;34.29;101701.81;5007401;28;20118;-77
2023/05/06 07:43:16;;;;;;;0.40;0.40;;;;;;;10.54;34.77;101705.88;5007452;28;20037;-77
2023/05/06 07:45:41;;;;;;;0.40;0.40;;;;;;;10.56;34.51;101693.75;4989485;28;20056;-77
2023/05/06 07:48:07;;;;;;;0.40;0.40;;;;;;;10.65;34.15;101701.66;5006944;28;20162;-76
2023/05/06 07:50:33;;;;;;;0.30;0.30;;;;;;;10.56;34.54;101709.34;5006971;28;20046;-76
2023/05/06 07:52:59;;;;;;;0.40;0.40;;;;;;;10.56;34.52;101700.69;5007205;28;20029;-71
2023/05/06 07:55:25;;;;;;;0.40;0.40;;;;;;;10.63;34.07;101692.13;4989423;28;20022;-73
2023/05/06 07:57:50;;;;;;;0.40;0.40;;;;;;;10.74;33.56;101689.63;5007157;28;20041;-72
2023/05/06 08:00:16;;;;;;;0.40;0.40;;;;;;;10.70;33.52;101685.28;5006746;28;20041;-72
2023/05/06 08:02:43;;;;;;;0.40;0.40;;;;;;;10.56;33.41;101693.75;5006814;28;20102;-73
2023/05/06 08:05:09;;;;;;;0.40;0.40;;;;;;;10.57;33.79;101692.91;5006906;28;20054;-75
2023/05/06 08:07:35;;;;;;;0.40;0.40;;;;;;;10.90;33.25;101691.56;4988957;28;20034;-71
2023/05/06 08:10:01;;;;;;;0.40;0.40;;;;;;;11.49;32.09;101690.38;4989251;28;20109;-70
2023/05/06 08:12:26;;;;;;;0.40;0.40;;;;;;;11.15;32.92;101690.94;5006682;28;20034;-72
2023/05/06 08:14:53;;;;;;;0.40;0.40;;;;;;;11.33;32.82;101671.16;4988985;28;20029;-71
2023/05/06 08:17:19;;;;;;;0.40;0.40;;;;;;;11.60;31.71;101688.75;4988910;28;20037;-71
2023/05/06 08:19:44;;;;;;;0.63;0.63;;;;;;;11.53;32.00;101697.38;5006652;28;20035;-70
2023/05/06 08:22:10;;;;;;;0.40;0.40;;;;;;;11.59;32.16;101691.31;5006662;28;20026;-70
2023/05/06 08:24:35;;;;;;;0.40;0.40;;;;;;;11.98;31.59;101691.63;5006552;28;20026;-72
2023/05/06 08:27:03;;;;;;;0.30;0.30;;;;;;;12.08;31.22;101692.56;4993948;28;20046;-70
2023/05/06 08:29:28;;;;;;;0.40;0.40;;;;;;;12.29;31.31;101709.16;5006361;28;20447;-65
2023/05/06 08:31:54;;;;;;;0.30;0.30;;;;;;;12.45;30.57;101699.69;5006505;28;20046;-70
2023/05/06 08:34:20;;;;;;;0.40;0.40;;;;;;;12.58;29.84;101696.28;5006666;28;20022;-70
2023/05/06 08:36:47;;;;;;;0.57;0.57;;;;;;;12.61;30.33;101691.09;5006542;28;20033;-69
2023/05/06 08:39:15;;;;;;;0.30;0.30;;;;;;;12.77;30.18;101688.53;5005110;28;20033;-70
2023/05/06 08:41:46;;;;;;;0.40;0.40;;;;;;;13.11;29.60;101725.13;5006335;28;20030;-66
2023/05/06 08:44:16;;;;;;;0.30;0.30;;;;;;;12.82;29.60;101723.31;5006260;28;20030;-64
2023/05/06 08:46:42;;;;;;;0.30;0.30;;;;;;;12.69;29.99;101687.63;5004671;28;20022;-67
2023/05/06 08:49:08;;;;;;;0.50;0.50;;;;;;;12.79;30.02;101697.25;5006177;28;20025;-68
2023/05/06 08:51:34;;;;;;;0.40;0.40;;;;;;;13.14;29.87;101691.25;5006179;28;20170;-67
2023/05/06 08:54:03;;;;;;;0.30;0.30;;;;;;;13.52;28.18;101667.81;5006043;28;20093;-67
2023/05/06 08:56:32;;;;;;;0.30;0.30;;;;;;;13.49;27.95;101688.66;5005318;28;20444;-69
2023/05/06 08:58:58;;;;;;;0.60;0.60;;;;;;;13.26;28.57;101679.06;5006074;28;20082;-70
2023/05/06 09:01:26;;;;;;;0.30;0.30;;;;;;;13.32;28.77;101714.72;5005642;28;20022;-70
2023/05/06 09:03:52;;;;;;;0.40;0.40;;;;;;;13.52;28.06;101675.63;5005742;28;20032;-69
2023/05/06 09:06:18;;;;;;;0.30;0.30;;;;;;;13.49;28.23;101659.94;5004519;28;20033;-66
2023/05/06 09:08:43;;;;;;;0.30;0.30;;;;;;;13.44;28.19;101677.34;5005797;28;20026;-68
2023/05/06 09:11:38;;;;;;;0.30;0.30;;;;;;;13.74;28.64;101688.66;5004437;28;20110;-68
2023/05/06 09:14:07;;;;;;;0.40;0.40;;;;;;;14.21;27.59;101688.56;4992779;28;20085;-69
2023/05/06 09:16:33;;;;;;;0.30;0.30;;;;;;;14.12;27.42;101679.03;5003984;28;20145;-70
2023/05/06 09:18:58;;;;;;;0.30;0.30;;;;;;;14.36;27.24;101672.00;5004280;28;20183;-70
2023/05/06 09:21:44;;;;;;;0.30;0.30;;;;;;;14.49;26.51;101685.84;5004151;28;20034;-68
2023/05/06 09:24:11;;;;;;;0.30;0.30;;;;;;;14.29;27.06;101689.41;5004223;28;20098;-70
2023/05/06 09:26:38;;;;;;;0.30;0.30;;;;;;;14.44;26.48;101682.41;5003901;28;20046;-70
2023/05/06 09:29:05;;;;;;;0.30;0.30;;;;;;;14.49;27.10;101676.28;5004232;28;20026;-70
2023/05/06 09:31:31;;;;;;;0.30;0.30;;;;;;;14.82;25.70;101686.63;5004888;28;20018;-71
2023/05/06 09:33:58;;;;;;;0.30;0.30;;;;;;;14.60;26.58;101676.22;5005672;28;20018;-70
2023/05/06 09:36:26;;;;;;;0.30;0.30;;;;;;;14.57;26.20;101680.63;5005390;28;20082;-71
2023/05/06 09:38:55;;;;;;;0.25;0.25;;;;;;;14.69;26.27;101677.06;5005388;28;20022;-69
2023/05/06 09:41:25;;;;;;;0.30;0.30;;;;;;;14.86;26.38;101664.78;5003906;28;20026;-70
2023/05/06 09:43:52;;;;;;;0.30;0.30;;;;;;;14.91;25.58;101676.94;5005256;28;20030;-69
2023/05/06 09:46:19;;;;;;;0.30;0.30;;;;;;;14.74;25.53;101673.53;5003661;28;20037;-70
2023/05/06 09:48:45;;;;;;;0.30;0.30;;;;;;;14.45;25.90;101690.25;5005166;28;20057;-69
2023/05/06 09:51:12;;;;;;;0.30;0.30;;;;;;;14.61;26.27;101671.88;5004084;28;20053;-68
2023/05/06 09:53:37;;;;;;;0.30;0.30;;;;;;;14.90;26.00;101651.69;5005006;28;20029;-70
2023/05/06 09:56:07;;;;;;;0.30;0.30;;;;;;;15.48;25.68;101657.34;5004999;28;20018;-69
2023/05/06 09:58:33;;;;;;;0.30;0.30;;;;;;;15.89;24.20;101662.19;5004539;28;20018;-68
2023/05/06 10:01:00;;;;;;;0.30;0.30;;;;;;;15.44;25.09;101653.03;5004363;28;20038;-70
2023/05/06 10:03:26;;;;;;;0.30;0.30;;;;;;;15.82;24.81;101645.69;5003550;28;20030;-67
2023/05/06 10:05:56;;;;;;;0.20;0.20;;;;;;;15.96;23.52;101648.16;5004507;28;20082;-72
2023/05/06 10:08:23;;;;;;;0.30;0.30;;;;;;;15.62;23.75;101649.38;5004927;28;20038;-72
2023/05/06 10:10:49;;;;;;;0.73;0.73;;;;;;;15.02;24.96;101655.97;5004834;28;20026;-71
2023/05/06 10:13:15;;;;;;;0.40;0.40;;;;;;;15.03;25.09;101645.50;5004886;28;20086;-71
2023/05/06 10:15:45;;;;;;;0.30;0.30;;;;;;;15.01;25.31;101660.34;5002644;28;20117;-71
2023/05/06 10:18:12;;;;;;;0.40;0.40;;;;;;;14.90;25.30;101643.84;5004359;28;20029;-72
2023/05/06 10:20:40;;;;;;;0.30;0.30;;;;;;;15.12;24.87;101652.41;5004756;28;20030;-71
2023/05/06 10:23:49;;;;;;;0.30;0.30;;;;;;;15.16;25.20;101651.50;5003173;28;20062;-72
2023/05/06 10:26:17;;;;;;;0.30;0.30;;;;;;;15.26;25.19;101652.31;5004252;28;20018;-72
2023/05/06 10:28:45;;;;;;;0.32;0.32;;;;;;;15.48;25.44;101657.34;5004515;28;20041;-71
2023/05/06 10:31:12;;;;;;;0.30;0.30;;;;;;;15.89;25.22;101644.75;5004253;28;20022;-72
2023/05/06 10:33:40;;;;;;;0.30;0.30;;;;;;;16.17;23.94;101646.19;5004745;28;20026;-71
2023/05/06 10:36:24;;;;;;;0.30;0.30;;;;;;;15.73;23.93;101641.41;5004682;28;20049;-70
2023/05/06 10:38:55;;;;;;;0.30;0.30;;;;;;;15.06;24.66;101629.81;5004521;28;20022;-70
2023/05/06 10:41:26;;;;;;;0.40;0.40;;;;;;;15.05;24.39;101635.88;5004596;28;20022;-73
2023/05/06 10:43:55;;;;;;;0.60;0.60;;;;;;;15.05;24.68;101635.03;4989591;28;20077;-70
2023/05/06 10:46:26;;;;;;;0.30;0.30;;;;;;;14.84;25.22;101637.78;5008315;28;20060;-70
2023/05/06 10:49:05;;;;;;;0.30;0.30;;;;;;;15.18;24.99;101636.66;5008322;28;20027;-68
2023/05/06 10:51:31;;;;;;;0.30;0.30;;;;;;;15.17;25.24;101632.34;5008438;28;20027;-68
2023/05/06 10:54:07;;;;;;;0.30;0.30;;;;;;;15.23;25.42;101621.81;5008542;28;20085;-68
2023/05/06 10:56:37;;;;;;;0.30;0.30;;;;;;;15.64;24.61;101613.56;5008514;28;20026;-69
2023/05/06 10:59:08;;;;;;;0.30;0.30;;;;;;;15.45;24.80;101625.97;5008331;28;20018;-71
2023/05/06 11:01:39;;;;;;;0.40;0.40;;;;;;;15.01;24.51;101618.50;5008230;28;20031;-69
2023/05/06 11:04:17;;;;;;;0.40;0.40;;;;;;;14.21;24.95;101610.22;4990943;28;20022;-68
2023/05/06 11:06:46;;;;;;;0.30;0.30;;;;;;;13.62;25.35;101617.38;5008209;28;20022;-68
2023/05/06 11:09:18;;;;;;;0.70;0.70;;;;;;;13.30;25.58;101619.97;5007941;28;20037;-68
2023/05/06 11:11:53;;;;;;;1.05;1.05;;;;;;;13.22;25.36;101622.56;5008179;28;20022;-69
2023/05/06 11:14:33;;;;;;;0.30;0.30;;;;;;;12.84;25.91;101613.84;5008032;28;20034;-68
2023/05/06 11:17:00;;;;;;;2.70;1.85;;;;;;;12.59;25.92;101598.16;5007950;28;20042;-68
2023/05/06 11:19:30;;;;;;;0.95;0.95;;;;;;;12.56;26.15;101616.38;4990374;28;20525;-68
2023/05/06 11:21:58;;;;;;;0.40;0.40;;;;;;;13.01;24.65;101603.44;5007976;28;20030;-68
2023/05/06 11:24:47;;;;;;;0.40;0.40;;;;;;;12.89;24.02;101609.53;5007956;28;20022;-65
2023/05/06 11:27:19;;;;;;;0.40;0.40;;;;;;;12.23;24.35;101616.28;5007028;28;20072;-69
2023/05/06 11:29:45;;;;;;;0.40;0.40;;;;;;;12.04;25.22;101603.16;5007807;28;20026;-67
2023/05/06 11:32:27;;;;;;;0.32;0.32;;;;;;;12.17;25.47;101608.44;5007810;28;20503;-68